sensor_id;sensor_type;location;lat;lon;timestamp;P1;durP1;ratioP1;P2;durP2;ratioP2
53391;SDS011;41667;51.922;8.850;2022-07-17T00:01:24;2.85;;;1.75;;
53391;SDS011;41667;51.922;8.850;2022-07-17T00:03:49;1.95;;;1.45;;
53391;SDS011;41667;51.922;8.850;2022-07-17T00:06:14;2.72;;;1.30;;
53391;SDS011;41667;51.922;8.850;2022-07-17T00:08:39;2.80;;;1.30;;
53391;SDS011;41667;51.922;8.850;2022-07-17T00:11:05;1.40;;;1.30;;
53391;SDS011;41667;51.922;8.850;2022-07-17T00:13:30;1.50;;;1.20;;
53391;SDS011;41667;51.922;8.850;2022-07-17T00:15:55;3.95;;;1.25;;
53391;SDS011;41667;51.922;8.850;2022-07-17T00:18:20;3.72;;;1.25;;
53391;SDS011;41667;51.922;8.850;2022-07-17T00:20:45;5.37;;;1.50;;
53391;SDS011;41667;51.922;8.850;2022-07-17T00:23:11;1.98;;;1.40;;
53391;SDS011;41667;51.922;8.850;2022-07-17T00:25:36;4.25;;;1.38;;
53391;SDS011;41667;51.922;8.850;2022-07-17T00:28:01;1.50;;;1.40;;
53391;SDS011;41667;51.922;8.850;2022-07-17T00:30:26;2.60;;;1.08;;
53391;SDS011;41667;51.922;8.850;2022-07-17T00:32:51;1.60;;;1.50;;
53391;SDS011;41667;51.922;8.850;2022-07-17T00:35:17;2.28;;;1.70;;
53391;SDS011;41667;51.922;8.850;2022-07-17T00:37:43;3.17;;;1.40;;
53391;SDS011;41667;51.922;8.850;2022-07-17T00:40:09;1.65;;;1.55;;
53391;SDS011;41667;51.922;8.850;2022-07-17T00:42:34;1.48;;;1.33;;
53391;SDS011;41667;51.922;8.850;2022-07-17T00:44:59;2.47;;;1.67;;
53391;SDS011;41667;51.922;8.850;2022-07-17T00:47:24;3.38;;;1.88;;
53391;SDS011;41667;51.922;8.850;2022-07-17T00:49:50;2.10;;;1.40;;
53391;SDS011;41667;51.922;8.850;2022-07-17T00:52:15;1.83;;;1.50;;
53391;SDS011;41667;51.922;8.850;2022-07-17T00:54:41;4.45;;;1.27;;
53391;SDS011;41667;51.922;8.850;2022-07-17T00:57:09;1.65;;;1.27;;
53391;SDS011;41667;51.922;8.850;2022-07-17T00:59:34;2.03;;;1.27;;
53391;SDS011;41667;51.922;8.850;2022-07-17T01:02:00;4.65;;;1.67;;
53391;SDS011;41667;51.922;8.850;2022-07-17T01:04:27;5.30;;;1.27;;
53391;SDS011;41667;51.922;8.850;2022-07-17T01:06:52;2.50;;;1.55;;
53391;SDS011;41667;51.922;8.850;2022-07-17T01:09:17;1.80;;;1.20;;
53391;SDS011;41667;51.922;8.850;2022-07-17T01:11:42;1.90;;;1.40;;
53391;SDS011;41667;51.922;8.850;2022-07-17T01:14:07;4.85;;;1.60;;
53391;SDS011;41667;51.922;8.850;2022-07-17T01:16:32;4.30;;;1.33;;
53391;SDS011;41667;51.922;8.850;2022-07-17T01:18:58;1.50;;;1.40;;
53391;SDS011;41667;51.922;8.850;2022-07-17T01:21:24;1.80;;;1.70;;
53391;SDS011;41667;51.922;8.850;2022-07-17T01:23:49;5.07;;;1.75;;
53391;SDS011;41667;51.922;8.850;2022-07-17T01:26:14;1.90;;;1.33;;
53391;SDS011;41667;51.922;8.850;2022-07-17T01:28:39;2.20;;;1.20;;
53391;SDS011;41667;51.922;8.850;2022-07-17T01:31:04;3.30;;;1.33;;
53391;SDS011;41667;51.922;8.850;2022-07-17T01:33:29;1.88;;;1.65;;
53391;SDS011;41667;51.922;8.850;2022-07-17T01:35:54;2.37;;;1.40;;
53391;SDS011;41667;51.922;8.850;2022-07-17T01:38:20;4.07;;;1.38;;
53391;SDS011;41667;51.922;8.850;2022-07-17T01:40:45;5.93;;;1.50;;
53391;SDS011;41667;51.922;8.850;2022-07-17T01:43:10;0.90;;;0.90;;
53391;SDS011;41667;51.922;8.850;2022-07-17T01:45:35;1.83;;;1.42;;
53391;SDS011;41667;51.922;8.850;2022-07-17T01:48:01;2.80;;;1.57;;
53391;SDS011;41667;51.922;8.850;2022-07-17T01:50:26;2.77;;;1.60;;
53391;SDS011;41667;51.922;8.850;2022-07-17T01:52:51;4.73;;;1.50;;
53391;SDS011;41667;51.922;8.850;2022-07-17T01:55:16;1.50;;;1.40;;
53391;SDS011;41667;51.922;8.850;2022-07-17T01:57:42;2.75;;;1.35;;
53391;SDS011;41667;51.922;8.850;2022-07-17T02:00:09;3.08;;;1.60;;
53391;SDS011;41667;51.922;8.850;2022-07-17T02:02:35;1.83;;;1.40;;
53391;SDS011;41667;51.922;8.850;2022-07-17T02:05:00;7.37;;;2.10;;
53391;SDS011;41667;51.922;8.850;2022-07-17T02:07:25;5.28;;;1.80;;
53391;SDS011;41667;51.922;8.850;2022-07-17T02:09:51;6.47;;;1.20;;
53391;SDS011;41667;51.922;8.850;2022-07-17T02:12:16;2.53;;;1.30;;
53391;SDS011;41667;51.922;8.850;2022-07-17T02:14:41;3.88;;;1.60;;
53391;SDS011;41667;51.922;8.850;2022-07-17T02:17:06;4.75;;;1.35;;
53391;SDS011;41667;51.922;8.850;2022-07-17T02:19:31;1.52;;;1.42;;
53391;SDS011;41667;51.922;8.850;2022-07-17T02:21:57;1.87;;;1.70;;
53391;SDS011;41667;51.922;8.850;2022-07-17T02:24:22;2.80;;;1.73;;
53391;SDS011;41667;51.922;8.850;2022-07-17T02:26:47;1.48;;;1.38;;
53391;SDS011;41667;51.922;8.850;2022-07-17T02:29:12;4.05;;;1.50;;
53391;SDS011;41667;51.922;8.850;2022-07-17T02:31:37;2.63;;;1.83;;
53391;SDS011;41667;51.922;8.850;2022-07-17T02:34:02;1.57;;;1.33;;
53391;SDS011;41667;51.922;8.850;2022-07-17T02:36:27;1.93;;;1.30;;
53391;SDS011;41667;51.922;8.850;2022-07-17T02:38:53;4.17;;;2.10;;
53391;SDS011;41667;51.922;8.850;2022-07-17T02:41:18;1.23;;;1.10;;
53391;SDS011;41667;51.922;8.850;2022-07-17T02:43:43;3.33;;;1.25;;
53391;SDS011;41667;51.922;8.850;2022-07-17T02:46:08;2.60;;;1.47;;
53391;SDS011;41667;51.922;8.850;2022-07-17T02:48:33;2.05;;;1.40;;
53391;SDS011;41667;51.922;8.850;2022-07-17T02:50:59;2.87;;;1.20;;
53391;SDS011;41667;51.922;8.850;2022-07-17T02:53:24;6.30;;;1.67;;
53391;SDS011;41667;51.922;8.850;2022-07-17T02:55:49;3.45;;;1.20;;
53391;SDS011;41667;51.922;8.850;2022-07-17T02:58:14;5.13;;;1.20;;
53391;SDS011;41667;51.922;8.850;2022-07-17T03:00:39;4.73;;;1.40;;
53391;SDS011;41667;51.922;8.850;2022-07-17T03:03:05;2.27;;;1.17;;
53391;SDS011;41667;51.922;8.850;2022-07-17T03:05:30;1.95;;;1.60;;
53391;SDS011;41667;51.922;8.850;2022-07-17T03:07:55;1.50;;;1.25;;
53391;SDS011;41667;51.922;8.850;2022-07-17T03:10:20;1.17;;;1.02;;
53391;SDS011;41667;51.922;8.850;2022-07-17T03:12:45;3.75;;;1.60;;
53391;SDS011;41667;51.922;8.850;2022-07-17T03:15:11;1.80;;;1.40;;
53391;SDS011;41667;51.922;8.850;2022-07-17T03:17:37;3.65;;;1.30;;
53391;SDS011;41667;51.922;8.850;2022-07-17T03:20:02;4.22;;;1.10;;
53391;SDS011;41667;51.922;8.850;2022-07-17T03:22:27;3.45;;;1.50;;
53391;SDS011;41667;51.922;8.850;2022-07-17T03:24:53;3.87;;;2.10;;
53391;SDS011;41667;51.922;8.850;2022-07-17T03:27:18;1.67;;;1.50;;
53391;SDS011;41667;51.922;8.850;2022-07-17T03:29:43;1.43;;;1.33;;
53391;SDS011;41667;51.922;8.850;2022-07-17T03:32:09;4.13;;;1.40;;
53391;SDS011;41667;51.922;8.850;2022-07-17T03:34:35;1.45;;;1.40;;
53391;SDS011;41667;51.922;8.850;2022-07-17T03:37:00;1.43;;;1.30;;
53391;SDS011;41667;51.922;8.850;2022-07-17T03:39:25;1.52;;;1.20;;
53391;SDS011;41667;51.922;8.850;2022-07-17T03:41:50;2.63;;;1.30;;
53391;SDS011;41667;51.922;8.850;2022-07-17T03:44:16;2.92;;;1.23;;
53391;SDS011;41667;51.922;8.850;2022-07-17T03:46:41;5.55;;;1.20;;
53391;SDS011;41667;51.922;8.850;2022-07-17T03:49:06;2.25;;;1.30;;
53391;SDS011;41667;51.922;8.850;2022-07-17T03:51:32;1.63;;;1.30;;
53391;SDS011;41667;51.922;8.850;2022-07-17T03:53:57;1.45;;;1.20;;
53391;SDS011;41667;51.922;8.850;2022-07-17T03:56:22;5.70;;;1.60;;
53391;SDS011;41667;51.922;8.850;2022-07-17T03:58:47;1.63;;;1.10;;
53391;SDS011;41667;51.922;8.850;2022-07-17T04:01:13;3.28;;;1.60;;
53391;SDS011;41667;51.922;8.850;2022-07-17T04:03:38;1.85;;;1.08;;
53391;SDS011;41667;51.922;8.850;2022-07-17T04:06:03;1.83;;;1.10;;
53391;SDS011;41667;51.922;8.850;2022-07-17T04:08:28;1.30;;;1.20;;
53391;SDS011;41667;51.922;8.850;2022-07-17T04:10:53;1.83;;;1.20;;
53391;SDS011;41667;51.922;8.850;2022-07-17T04:13:18;6.93;;;1.23;;
53391;SDS011;41667;51.922;8.850;2022-07-17T04:15:44;5.80;;;1.50;;
53391;SDS011;41667;51.922;8.850;2022-07-17T04:18:36;7.18;;;1.58;;
53391;SDS011;41667;51.922;8.850;2022-07-17T04:21:02;1.60;;;1.20;;
53391;SDS011;41667;51.922;8.850;2022-07-17T04:23:28;2.10;;;1.23;;
53391;SDS011;41667;51.922;8.850;2022-07-17T04:25:53;2.90;;;1.42;;
53391;SDS011;41667;51.922;8.850;2022-07-17T04:28:19;5.18;;;1.52;;
53391;SDS011;41667;51.922;8.850;2022-07-17T04:30:44;3.03;;;1.57;;
53391;SDS011;41667;51.922;8.850;2022-07-17T04:33:09;2.93;;;1.33;;
53391;SDS011;41667;51.922;8.850;2022-07-17T04:35:35;2.60;;;1.15;;
53391;SDS011;41667;51.922;8.850;2022-07-17T04:38:00;2.85;;;1.10;;
53391;SDS011;41667;51.922;8.850;2022-07-17T04:40:25;2.28;;;1.10;;
53391;SDS011;41667;51.922;8.850;2022-07-17T04:42:51;1.92;;;1.17;;
53391;SDS011;41667;51.922;8.850;2022-07-17T04:45:16;2.05;;;1.40;;
53391;SDS011;41667;51.922;8.850;2022-07-17T04:47:41;1.67;;;1.20;;
53391;SDS011;41667;51.922;8.850;2022-07-17T04:50:07;4.85;;;1.35;;
53391;SDS011;41667;51.922;8.850;2022-07-17T04:52:32;0.98;;;0.98;;
53391;SDS011;41667;51.922;8.850;2022-07-17T04:54:58;5.47;;;1.30;;
53391;SDS011;41667;51.922;8.850;2022-07-17T04:57:23;2.33;;;1.20;;
53391;SDS011;41667;51.922;8.850;2022-07-17T04:59:48;1.20;;;1.10;;
53391;SDS011;41667;51.922;8.850;2022-07-17T05:02:13;3.00;;;1.27;;
53391;SDS011;41667;51.922;8.850;2022-07-17T05:04:38;1.20;;;1.10;;
53391;SDS011;41667;51.922;8.850;2022-07-17T05:07:03;0.93;;;0.93;;
53391;SDS011;41667;51.922;8.850;2022-07-17T05:09:28;2.07;;;1.23;;
53391;SDS011;41667;51.922;8.850;2022-07-17T05:11:54;3.63;;;1.60;;
53391;SDS011;41667;51.922;8.850;2022-07-17T05:14:19;5.87;;;1.57;;
53391;SDS011;41667;51.922;8.850;2022-07-17T05:16:44;3.13;;;1.48;;
53391;SDS011;41667;51.922;8.850;2022-07-17T05:19:09;3.97;;;1.63;;
53391;SDS011;41667;51.922;8.850;2022-07-17T05:21:34;3.77;;;1.33;;
53391;SDS011;41667;51.922;8.850;2022-07-17T05:24:00;3.37;;;1.37;;
53391;SDS011;41667;51.922;8.850;2022-07-17T05:26:25;2.33;;;1.40;;
53391;SDS011;41667;51.922;8.850;2022-07-17T05:28:51;2.22;;;1.38;;
53391;SDS011;41667;51.922;8.850;2022-07-17T05:31:16;1.98;;;1.35;;
53391;SDS011;41667;51.922;8.850;2022-07-17T05:33:41;2.95;;;0.98;;
53391;SDS011;41667;51.922;8.850;2022-07-17T05:36:07;2.23;;;1.07;;
53391;SDS011;41667;51.922;8.850;2022-07-17T05:38:32;3.63;;;2.15;;
53391;SDS011;41667;51.922;8.850;2022-07-17T05:40:57;2.40;;;1.13;;
53391;SDS011;41667;51.922;8.850;2022-07-17T05:43:22;3.33;;;1.10;;
53391;SDS011;41667;51.922;8.850;2022-07-17T05:45:48;1.40;;;1.20;;
53391;SDS011;41667;51.922;8.850;2022-07-17T05:48:13;4.47;;;1.10;;
53391;SDS011;41667;51.922;8.850;2022-07-17T05:50:38;2.73;;;1.30;;
53391;SDS011;41667;51.922;8.850;2022-07-17T05:53:03;3.87;;;1.17;;
53391;SDS011;41667;51.922;8.850;2022-07-17T05:55:28;3.47;;;1.67;;
53391;SDS011;41667;51.922;8.850;2022-07-17T05:57:53;2.38;;;1.70;;
53391;SDS011;41667;51.922;8.850;2022-07-17T06:00:19;4.87;;;1.13;;
53391;SDS011;41667;51.922;8.850;2022-07-17T06:02:45;2.70;;;1.10;;
53391;SDS011;41667;51.922;8.850;2022-07-17T06:05:10;4.88;;;1.30;;
53391;SDS011;41667;51.922;8.850;2022-07-17T06:07:36;4.68;;;1.13;;
53391;SDS011;41667;51.922;8.850;2022-07-17T06:10:02;3.97;;;1.20;;
53391;SDS011;41667;51.922;8.850;2022-07-17T06:12:27;1.83;;;0.90;;
53391;SDS011;41667;51.922;8.850;2022-07-17T06:14:52;5.15;;;0.98;;
53391;SDS011;41667;51.922;8.850;2022-07-17T06:17:17;3.03;;;1.15;;
53391;SDS011;41667;51.922;8.850;2022-07-17T06:19:42;3.80;;;1.00;;
53391;SDS011;41667;51.922;8.850;2022-07-17T06:22:07;4.47;;;1.40;;
53391;SDS011;41667;51.922;8.850;2022-07-17T06:24:33;3.90;;;1.83;;
53391;SDS011;41667;51.922;8.850;2022-07-17T06:26:58;4.35;;;1.23;;
53391;SDS011;41667;51.922;8.850;2022-07-17T06:29:23;7.50;;;1.17;;
53391;SDS011;41667;51.922;8.850;2022-07-17T06:31:48;5.43;;;1.27;;
53391;SDS011;41667;51.922;8.850;2022-07-17T06:34:13;5.53;;;0.80;;
53391;SDS011;41667;51.922;8.850;2022-07-17T06:36:38;4.20;;;1.10;;
53391;SDS011;41667;51.922;8.850;2022-07-17T06:39:03;2.00;;;1.17;;
53391;SDS011;41667;51.922;8.850;2022-07-17T06:41:29;1.57;;;1.00;;
53391;SDS011;41667;51.922;8.850;2022-07-17T06:43:54;6.60;;;1.20;;
53391;SDS011;41667;51.922;8.850;2022-07-17T06:46:19;1.10;;;0.82;;
53391;SDS011;41667;51.922;8.850;2022-07-17T06:48:44;5.38;;;1.17;;
53391;SDS011;41667;51.922;8.850;2022-07-17T06:51:09;3.83;;;1.40;;
53391;SDS011;41667;51.922;8.850;2022-07-17T06:53:34;3.43;;;1.30;;
53391;SDS011;41667;51.922;8.850;2022-07-17T06:56:00;3.10;;;1.53;;
53391;SDS011;41667;51.922;8.850;2022-07-17T06:58:25;3.72;;;1.98;;
53391;SDS011;41667;51.922;8.850;2022-07-17T07:00:50;2.50;;;0.97;;
53391;SDS011;41667;51.922;8.850;2022-07-17T07:03:15;2.27;;;0.97;;
53391;SDS011;41667;51.922;8.850;2022-07-17T07:05:40;6.17;;;1.37;;
53391;SDS011;41667;51.922;8.850;2022-07-17T07:08:05;4.55;;;1.00;;
53391;SDS011;41667;51.922;8.850;2022-07-17T07:10:31;4.27;;;1.47;;
53391;SDS011;41667;51.922;8.850;2022-07-17T07:12:56;1.75;;;1.05;;
53391;SDS011;41667;51.922;8.850;2022-07-17T07:15:21;3.75;;;1.30;;
53391;SDS011;41667;51.922;8.850;2022-07-17T07:17:46;2.90;;;0.98;;
53391;SDS011;41667;51.922;8.850;2022-07-17T07:20:12;4.85;;;1.10;;
53391;SDS011;41667;51.922;8.850;2022-07-17T07:22:37;4.43;;;1.30;;
53391;SDS011;41667;51.922;8.850;2022-07-17T07:25:03;4.32;;;1.10;;
53391;SDS011;41667;51.922;8.850;2022-07-17T07:27:28;6.07;;;1.20;;
53391;SDS011;41667;51.922;8.850;2022-07-17T07:29:54;2.63;;;1.00;;
53391;SDS011;41667;51.922;8.850;2022-07-17T07:32:19;5.43;;;1.60;;
53391;SDS011;41667;51.922;8.850;2022-07-17T07:34:44;3.77;;;1.47;;
53391;SDS011;41667;51.922;8.850;2022-07-17T07:37:09;3.43;;;1.20;;
53391;SDS011;41667;51.922;8.850;2022-07-17T07:39:34;4.10;;;1.00;;
53391;SDS011;41667;51.922;8.850;2022-07-17T07:41:59;2.42;;;0.80;;
53391;SDS011;41667;51.922;8.850;2022-07-17T07:44:25;3.05;;;1.27;;
53391;SDS011;41667;51.922;8.850;2022-07-17T07:46:50;3.38;;;0.88;;
53391;SDS011;41667;51.922;8.850;2022-07-17T07:49:15;8.17;;;0.83;;
53391;SDS011;41667;51.922;8.850;2022-07-17T07:51:41;3.40;;;0.80;;
53391;SDS011;41667;51.922;8.850;2022-07-17T07:54:06;4.65;;;1.50;;
53391;SDS011;41667;51.922;8.850;2022-07-17T07:56:31;1.17;;;1.02;;
53391;SDS011;41667;51.922;8.850;2022-07-17T07:58:56;6.78;;;1.50;;
53391;SDS011;41667;51.922;8.850;2022-07-17T08:01:22;3.92;;;1.00;;
53391;SDS011;41667;51.922;8.850;2022-07-17T08:03:47;2.90;;;0.82;;
53391;SDS011;41667;51.922;8.850;2022-07-17T08:06:12;2.88;;;1.65;;
53391;SDS011;41667;51.922;8.850;2022-07-17T08:08:39;2.28;;;1.15;;
53391;SDS011;41667;51.922;8.850;2022-07-17T08:11:04;1.85;;;1.00;;
53391;SDS011;41667;51.922;8.850;2022-07-17T08:13:29;6.40;;;1.17;;
53391;SDS011;41667;51.922;8.850;2022-07-17T08:15:54;3.95;;;1.10;;
53391;SDS011;41667;51.922;8.850;2022-07-17T08:18:19;2.45;;;0.65;;
53391;SDS011;41667;51.922;8.850;2022-07-17T08:20:45;5.75;;;1.63;;
53391;SDS011;41667;51.922;8.850;2022-07-17T08:23:10;0.85;;;0.70;;
53391;SDS011;41667;51.922;8.850;2022-07-17T08:25:35;4.03;;;1.20;;
53391;SDS011;41667;51.922;8.850;2022-07-17T08:28:02;5.40;;;2.45;;
53391;SDS011;41667;51.922;8.850;2022-07-17T08:30:27;2.42;;;0.77;;
53391;SDS011;41667;51.922;8.850;2022-07-17T08:32:53;3.90;;;0.77;;
53391;SDS011;41667;51.922;8.850;2022-07-17T08:35:18;1.73;;;1.10;;
53391;SDS011;41667;51.922;8.850;2022-07-17T08:37:45;3.70;;;0.98;;
53391;SDS011;41667;51.922;8.850;2022-07-17T08:40:17;4.57;;;1.02;;
53391;SDS011;41667;51.922;8.850;2022-07-17T08:42:42;1.08;;;0.80;;
53391;SDS011;41667;51.922;8.850;2022-07-17T08:45:08;1.93;;;1.40;;
53391;SDS011;41667;51.922;8.850;2022-07-17T08:47:33;2.72;;;0.90;;
53391;SDS011;41667;51.922;8.850;2022-07-17T08:49:58;4.60;;;1.07;;
53391;SDS011;41667;51.922;8.850;2022-07-17T08:52:23;4.45;;;1.10;;
53391;SDS011;41667;51.922;8.850;2022-07-17T08:54:49;2.40;;;0.97;;
53391;SDS011;41667;51.922;8.850;2022-07-17T08:57:14;2.35;;;0.88;;
53391;SDS011;41667;51.922;8.850;2022-07-17T08:59:39;3.80;;;0.60;;
53391;SDS011;41667;51.922;8.850;2022-07-17T09:02:06;3.63;;;0.80;;
53391;SDS011;41667;51.922;8.850;2022-07-17T09:04:31;7.27;;;1.43;;
53391;SDS011;41667;51.922;8.850;2022-07-17T09:07:00;2.40;;;1.40;;
53391;SDS011;41667;51.922;8.850;2022-07-17T09:09:26;3.33;;;1.15;;
53391;SDS011;41667;51.922;8.850;2022-07-17T09:11:51;2.33;;;1.10;;
53391;SDS011;41667;51.922;8.850;2022-07-17T09:14:18;1.67;;;0.60;;
53391;SDS011;41667;51.922;8.850;2022-07-17T09:17:05;1.58;;;1.10;;
53391;SDS011;41667;51.922;8.850;2022-07-17T09:19:30;5.45;;;0.70;;
53391;SDS011;41667;51.922;8.850;2022-07-17T09:24:38;1.90;;;0.80;;
53391;SDS011;41667;51.922;8.850;2022-07-17T09:27:03;3.47;;;1.40;;
53391;SDS011;41667;51.922;8.850;2022-07-17T09:29:28;3.70;;;0.90;;
53391;SDS011;41667;51.922;8.850;2022-07-17T09:31:53;5.63;;;0.77;;
53391;SDS011;41667;51.922;8.850;2022-07-17T09:34:19;0.73;;;0.70;;
53391;SDS011;41667;51.922;8.850;2022-07-17T09:36:44;4.70;;;1.98;;
53391;SDS011;41667;51.922;8.850;2022-07-17T09:39:09;1.73;;;0.70;;
53391;SDS011;41667;51.922;8.850;2022-07-17T09:41:34;5.10;;;0.88;;
53391;SDS011;41667;51.922;8.850;2022-07-17T09:44:01;3.38;;;1.13;;
53391;SDS011;41667;51.922;8.850;2022-07-17T09:46:28;2.43;;;0.70;;
53391;SDS011;41667;51.922;8.850;2022-07-17T09:48:57;2.83;;;1.17;;
53391;SDS011;41667;51.922;8.850;2022-07-17T09:51:26;2.30;;;0.63;;
53391;SDS011;41667;51.922;8.850;2022-07-17T09:53:53;0.90;;;0.90;;
53391;SDS011;41667;51.922;8.850;2022-07-17T09:56:20;4.20;;;0.88;;
53391;SDS011;41667;51.922;8.850;2022-07-17T09:58:48;1.67;;;0.50;;
53391;SDS011;41667;51.922;8.850;2022-07-17T10:01:14;2.65;;;0.65;;
53391;SDS011;41667;51.922;8.850;2022-07-17T10:03:40;0.95;;;0.50;;
53391;SDS011;41667;51.922;8.850;2022-07-17T10:06:06;1.73;;;0.75;;
53391;SDS011;41667;51.922;8.850;2022-07-17T10:08:31;1.83;;;0.88;;
53391;SDS011;41667;51.922;8.850;2022-07-17T10:10:56;4.20;;;0.80;;
53391;SDS011;41667;51.922;8.850;2022-07-17T10:13:21;1.50;;;0.60;;
53391;SDS011;41667;51.922;8.850;2022-07-17T10:15:46;1.27;;;0.57;;
53391;SDS011;41667;51.922;8.850;2022-07-17T10:18:12;2.77;;;0.80;;
53391;SDS011;41667;51.922;8.850;2022-07-17T10:20:37;0.75;;;0.70;;
53391;SDS011;41667;51.922;8.850;2022-07-17T10:23:11;2.37;;;0.67;;
53391;SDS011;41667;51.922;8.850;2022-07-17T10:25:36;4.20;;;0.90;;
53391;SDS011;41667;51.922;8.850;2022-07-17T10:28:01;1.23;;;0.70;;
53391;SDS011;41667;51.922;8.850;2022-07-17T10:30:27;2.90;;;0.70;;
53391;SDS011;41667;51.922;8.850;2022-07-17T10:32:54;2.47;;;0.80;;
53391;SDS011;41667;51.922;8.850;2022-07-17T10:35:20;1.95;;;0.98;;
53391;SDS011;41667;51.922;8.850;2022-07-17T10:37:45;2.38;;;0.60;;
53391;SDS011;41667;51.922;8.850;2022-07-17T10:40:21;4.40;;;1.00;;
53391;SDS011;41667;51.922;8.850;2022-07-17T10:45:15;3.15;;;0.80;;
53391;SDS011;41667;51.922;8.850;2022-07-17T10:50:10;4.72;;;1.00;;
53391;SDS011;41667;51.922;8.850;2022-07-17T10:52:35;2.80;;;0.70;;
53391;SDS011;41667;51.922;8.850;2022-07-17T10:55:00;0.52;;;0.50;;
53391;SDS011;41667;51.922;8.850;2022-07-17T10:57:25;1.90;;;0.57;;
53391;SDS011;41667;51.922;8.850;2022-07-17T10:59:50;2.78;;;0.70;;
53391;SDS011;41667;51.922;8.850;2022-07-17T11:02:15;3.15;;;0.80;;
53391;SDS011;41667;51.922;8.850;2022-07-17T11:04:41;1.90;;;0.60;;
53391;SDS011;41667;51.922;8.850;2022-07-17T11:07:06;1.63;;;0.70;;
53391;SDS011;41667;51.922;8.850;2022-07-17T11:09:31;1.17;;;0.60;;
53391;SDS011;41667;51.922;8.850;2022-07-17T11:11:56;1.75;;;0.65;;
53391;SDS011;41667;51.922;8.850;2022-07-17T11:14:22;2.42;;;0.75;;
53391;SDS011;41667;51.922;8.850;2022-07-17T11:16:57;1.55;;;0.80;;
53391;SDS011;41667;51.922;8.850;2022-07-17T11:19:27;1.77;;;0.57;;
53391;SDS011;41667;51.922;8.850;2022-07-17T11:21:52;3.17;;;0.60;;
53391;SDS011;41667;51.922;8.850;2022-07-17T11:24:18;1.33;;;0.73;;
53391;SDS011;41667;51.922;8.850;2022-07-17T11:26:43;4.10;;;0.77;;
53391;SDS011;41667;51.922;8.850;2022-07-17T11:29:11;3.08;;;1.13;;
53391;SDS011;41667;51.922;8.850;2022-07-17T11:31:37;1.30;;;0.65;;
53391;SDS011;41667;51.922;8.850;2022-07-17T11:34:03;3.88;;;0.80;;
53391;SDS011;41667;51.922;8.850;2022-07-17T11:36:33;0.85;;;0.60;;
53391;SDS011;41667;51.922;8.850;2022-07-17T11:39:20;1.60;;;0.60;;
53391;SDS011;41667;51.922;8.850;2022-07-17T11:41:45;4.32;;;0.80;;
53391;SDS011;41667;51.922;8.850;2022-07-17T11:44:16;1.05;;;0.80;;
53391;SDS011;41667;51.922;8.850;2022-07-17T11:46:41;1.42;;;0.70;;
53391;SDS011;41667;51.922;8.850;2022-07-17T11:49:08;3.28;;;0.75;;
53391;SDS011;41667;51.922;8.850;2022-07-17T11:51:37;3.08;;;0.98;;
53391;SDS011;41667;51.922;8.850;2022-07-17T11:54:06;2.60;;;0.77;;
53391;SDS011;41667;51.922;8.850;2022-07-17T11:56:32;1.42;;;0.70;;
53391;SDS011;41667;51.922;8.850;2022-07-17T11:58:58;3.33;;;0.60;;
53391;SDS011;41667;51.922;8.850;2022-07-17T12:01:23;0.83;;;0.80;;
53391;SDS011;41667;51.922;8.850;2022-07-17T12:04:00;3.00;;;0.90;;
53391;SDS011;41667;51.922;8.850;2022-07-17T12:06:27;1.70;;;0.60;;
53391;SDS011;41667;51.922;8.850;2022-07-17T12:08:52;3.20;;;0.70;;
53391;SDS011;41667;51.922;8.850;2022-07-17T12:11:18;2.92;;;0.80;;
53391;SDS011;41667;51.922;8.850;2022-07-17T12:13:44;5.13;;;0.60;;
53391;SDS011;41667;51.922;8.850;2022-07-17T12:16:19;1.48;;;0.90;;
53391;SDS011;41667;51.922;8.850;2022-07-17T12:18:54;2.22;;;0.75;;
53391;SDS011;41667;51.922;8.850;2022-07-17T12:21:19;1.98;;;0.90;;
53391;SDS011;41667;51.922;8.850;2022-07-17T12:23:44;2.28;;;0.88;;
53391;SDS011;41667;51.922;8.850;2022-07-17T12:26:10;2.05;;;0.60;;
53391;SDS011;41667;51.922;8.850;2022-07-17T12:28:36;2.40;;;0.52;;
53391;SDS011;41667;51.922;8.850;2022-07-17T12:31:02;3.23;;;0.70;;
53391;SDS011;41667;51.922;8.850;2022-07-17T12:33:27;1.20;;;0.50;;
53391;SDS011;41667;51.922;8.850;2022-07-17T12:35:52;2.20;;;0.80;;
53391;SDS011;41667;51.922;8.850;2022-07-17T12:38:18;1.10;;;0.57;;
53391;SDS011;41667;51.922;8.850;2022-07-17T12:40:43;1.50;;;0.60;;
53391;SDS011;41667;51.922;8.850;2022-07-17T12:43:08;1.40;;;0.45;;
53391;SDS011;41667;51.922;8.850;2022-07-17T12:45:33;1.35;;;0.80;;
53391;SDS011;41667;51.922;8.850;2022-07-17T12:47:59;1.03;;;0.60;;
53391;SDS011;41667;51.922;8.850;2022-07-17T12:50:24;2.65;;;0.70;;
53391;SDS011;41667;51.922;8.850;2022-07-17T12:52:49;3.10;;;0.83;;
53391;SDS011;41667;51.922;8.850;2022-07-17T12:55:14;5.97;;;0.80;;
53391;SDS011;41667;51.922;8.850;2022-07-17T12:57:39;1.80;;;0.60;;
53391;SDS011;41667;51.922;8.850;2022-07-17T13:00:04;2.05;;;0.60;;
53391;SDS011;41667;51.922;8.850;2022-07-17T13:02:30;1.25;;;0.55;;
53391;SDS011;41667;51.922;8.850;2022-07-17T13:04:55;1.40;;;0.60;;
53391;SDS011;41667;51.922;8.850;2022-07-17T13:07:21;3.97;;;0.80;;
53391;SDS011;41667;51.922;8.850;2022-07-17T13:09:46;1.83;;;0.70;;
53391;SDS011;41667;51.922;8.850;2022-07-17T13:12:11;0.80;;;0.60;;
53391;SDS011;41667;51.922;8.850;2022-07-17T13:14:36;1.60;;;0.52;;
53391;SDS011;41667;51.922;8.850;2022-07-17T13:17:01;1.65;;;0.60;;
53391;SDS011;41667;51.922;8.850;2022-07-17T13:19:27;2.85;;;0.80;;
53391;SDS011;41667;51.922;8.850;2022-07-17T13:21:52;1.55;;;0.50;;
53391;SDS011;41667;51.922;8.850;2022-07-17T13:24:17;2.57;;;0.50;;
53391;SDS011;41667;51.922;8.850;2022-07-17T13:26:43;0.40;;;0.40;;
53391;SDS011;41667;51.922;8.850;2022-07-17T13:29:08;0.63;;;0.45;;
53391;SDS011;41667;51.922;8.850;2022-07-17T13:31:33;0.67;;;0.63;;
53391;SDS011;41667;51.922;8.850;2022-07-17T13:33:58;0.40;;;0.40;;
53391;SDS011;41667;51.922;8.850;2022-07-17T13:36:23;1.35;;;0.50;;
53391;SDS011;41667;51.922;8.850;2022-07-17T13:38:49;1.90;;;0.40;;
53391;SDS011;41667;51.922;8.850;2022-07-17T13:41:14;0.95;;;0.52;;
53391;SDS011;41667;51.922;8.850;2022-07-17T13:43:39;0.65;;;0.45;;
53391;SDS011;41667;51.922;8.850;2022-07-17T13:46:04;0.95;;;0.50;;
53391;SDS011;41667;51.922;8.850;2022-07-17T13:48:29;1.50;;;0.70;;
53391;SDS011;41667;51.922;8.850;2022-07-17T13:50:55;0.63;;;0.50;;
53391;SDS011;41667;51.922;8.850;2022-07-17T13:53:20;1.38;;;0.50;;
53391;SDS011;41667;51.922;8.850;2022-07-17T13:55:45;0.50;;;0.30;;
53391;SDS011;41667;51.922;8.850;2022-07-17T13:58:10;0.50;;;0.50;;
53391;SDS011;41667;51.922;8.850;2022-07-17T14:00:35;2.38;;;0.68;;
53391;SDS011;41667;51.922;8.850;2022-07-17T14:03:00;1.50;;;0.40;;
53391;SDS011;41667;51.922;8.850;2022-07-17T14:05:26;0.40;;;0.40;;
53391;SDS011;41667;51.922;8.850;2022-07-17T14:07:51;0.30;;;0.30;;
53391;SDS011;41667;51.922;8.850;2022-07-17T14:10:16;0.70;;;0.40;;
53391;SDS011;41667;51.922;8.850;2022-07-17T14:12:41;0.60;;;0.50;;
53391;SDS011;41667;51.922;8.850;2022-07-17T14:15:06;3.15;;;0.50;;
53391;SDS011;41667;51.922;8.850;2022-07-17T14:17:35;0.60;;;0.50;;
53391;SDS011;41667;51.922;8.850;2022-07-17T14:20:00;0.55;;;0.55;;
53391;SDS011;41667;51.922;8.850;2022-07-17T14:22:25;3.70;;;0.60;;
53391;SDS011;41667;51.922;8.850;2022-07-17T14:24:50;1.75;;;0.65;;
53391;SDS011;41667;51.922;8.850;2022-07-17T14:27:16;1.27;;;0.50;;
53391;SDS011;41667;51.922;8.850;2022-07-17T14:29:41;0.55;;;0.40;;
53391;SDS011;41667;51.922;8.850;2022-07-17T14:32:06;0.53;;;0.50;;
53391;SDS011;41667;51.922;8.850;2022-07-17T14:34:31;1.10;;;0.70;;
53391;SDS011;41667;51.922;8.850;2022-07-17T14:36:56;1.33;;;0.50;;
53391;SDS011;41667;51.922;8.850;2022-07-17T14:39:21;0.50;;;0.50;;
53391;SDS011;41667;51.922;8.850;2022-07-17T14:41:47;0.77;;;0.57;;
53391;SDS011;41667;51.922;8.850;2022-07-17T14:44:12;2.03;;;0.53;;
53391;SDS011;41667;51.922;8.850;2022-07-17T14:46:37;1.75;;;0.60;;